Time;durP1;ratioP1;P1;durP2;ratioP2;P2;SDS_P1;SDS_P2;PMS_P1;PMS_P2;Temp;Humidity;BMP_temperature;BMP_pressure;BME280_temperature;BME280_humidity;BME280_pressure;Samples;Min_cycle;Max_cycle;Signal;HPM_P1;HPM_P2
2022/10/28 00:00:55;;;;;;;13.73;10.17;;;;;;;10.60;100.00;101555.28;5036107;28;20213;-72
2022/10/28 00:03:23;;;;;;;12.73;9.17;;;;;;;10.65;100.00;101552.63;5037545;28;20321;-73
2022/10/28 00:05:49;;;;;;;14.37;9.57;;;;;;;10.68;100.00;101550.00;5037192;28;20629;-72
2022/10/28 00:08:15;;;;;;;15.40;10.10;;;;;;;10.71;100.00;101543.88;5036882;28;20194;-73
2022/10/28 00:10:42;;;;;;;15.80;9.13;;;;;;;10.69;100.00;101549.09;5035426;28;20682;-73
2022/10/28 00:13:08;;;;;;;13.27;9.50;;;;;;;10.71;100.00;101551.69;5031812;28;20226;-73
2022/10/28 00:15:35;;;;;;;14.80;9.60;;;;;;;10.74;100.00;101534.25;5035544;28;20206;-71
2022/10/28 00:18:01;;;;;;;12.27;9.03;;;;;;;10.79;100.00;101535.06;5036364;28;20570;-73
2022/10/28 00:20:31;;;;;;;12.27;9.03;;;;;;;10.80;100.00;101542.03;5031503;28;20205;-72
2022/10/28 00:22:57;;;;;;;14.73;9.07;;;;;;;10.84;100.00;101537.63;5032930;28;20472;-72
2022/10/28 00:25:24;;;;;;;13.53;9.17;;;;;;;10.85;100.00;101539.34;5033530;28;20203;-73
2022/10/28 00:27:51;;;;;;;16.93;10.00;;;;;;;10.88;100.00;101541.06;5035980;28;20215;-71
2022/10/28 00:30:17;;;;;;;12.07;8.93;;;;;;;10.91;100.00;101546.25;5037351;28;20195;-72
2022/10/28 00:32:44;;;;;;;12.97;9.00;;;;;;;10.89;100.00;101543.66;5037893;28;20552;-73
2022/10/28 00:35:10;;;;;;;13.90;8.50;;;;;;;10.90;100.00;101534.91;5036925;28;20651;-73
2022/10/28 00:37:38;;;;;;;15.43;8.27;;;;;;;10.89;100.00;101528.00;5035485;28;20517;-72
2022/10/28 00:40:05;;;;;;;11.10;8.90;;;;;;;10.90;100.00;101521.88;5037669;28;20203;-73
2022/10/28 00:42:31;;;;;;;11.17;8.73;;;;;;;10.91;100.00;101523.63;5039053;28;20287;-73
2022/10/28 00:44:59;;;;;;;10.97;8.10;;;;;;;10.98;100.00;101521.78;5037756;28;20251;-72
2022/10/28 00:47:37;;;;;;;12.70;8.27;;;;;;;11.04;100.00;101513.00;5039700;28;20198;-73
2022/10/28 00:50:13;;;;;;;9.70;7.67;;;;;;;11.04;100.00;101518.22;5039491;28;20427;-72
2022/10/28 00:52:43;;;;;;;11.10;8.03;;;;;;;11.07;100.00;101519.06;5038739;28;20203;-72
2022/10/28 00:55:09;;;;;;;11.37;8.00;;;;;;;11.07;100.00;101507.75;5036753;28;20221;-73
2022/10/28 00:57:37;;;;;;;11.00;8.00;;;;;;;11.08;100.00;101504.25;5037465;28;20214;-72
2022/10/28 01:00:06;;;;;;;12.97;7.90;;;;;;;11.06;100.00;101509.47;5037969;28;20195;-72
2022/10/28 01:02:39;;;;;;;11.10;8.43;;;;;;;11.04;100.00;101506.03;5042453;28;20207;-73
2022/10/28 01:05:06;;;;;;;14.63;8.30;;;;;;;11.01;100.00;101503.50;5036594;28;20692;-72
2022/10/28 01:07:33;;;;;;;13.03;8.30;;;;;;;10.99;100.00;101506.13;5038789;28;20195;-71
2022/10/28 01:10:00;;;;;;;13.03;8.33;;;;;;;11.00;100.00;101506.97;5038648;28;20203;-73
2022/10/28 01:12:35;;;;;;;12.50;8.60;;;;;;;10.99;100.00;101498.28;5036961;28;20543;-72
2022/10/28 01:15:12;;;;;;;14.53;7.90;;;;;;;11.01;100.00;101502.59;5019582;28;20203;-73
2022/10/28 01:17:50;;;;;;;15.70;8.30;;;;;;;11.03;100.00;101499.13;5036752;28;20229;-72
2022/10/28 01:20:48;;;;;;;12.67;7.80;;;;;;;11.13;100.00;101497.22;5038408;28;20206;-72
2022/10/28 01:23:24;;;;;;;12.60;8.03;;;;;;;11.14;100.00;101505.03;5035369;28;20256;-72
2022/10/28 01:26:03;;;;;;;12.13;8.43;;;;;;;11.10;100.00;101492.91;5038662;28;20769;-71
2022/10/28 01:28:48;;;;;;;13.07;8.30;;;;;;;11.08;100.00;101494.69;5034758;28;20217;-73
2022/10/28 01:31:26;;;;;;;16.83;8.00;;;;;;;11.08;100.00;101483.38;5039902;28;20205;-72
2022/10/28 01:33:59;;;;;;;15.33;8.73;;;;;;;11.05;100.00;101491.25;5042522;28;20219;-72
2022/10/28 01:36:36;;;;;;;13.67;8.50;;;;;;;11.06;100.00;101483.38;5037293;28;20557;-73
2022/10/28 01:39:13;;;;;;;10.63;8.00;;;;;;;11.06;100.00;101488.59;5035233;28;20238;-73
2022/10/28 01:41:49;;;;;;;10.97;7.97;;;;;;;11.02;100.00;101486.94;5035968;28;20560;-73
2022/10/28 01:44:24;;;;;;;11.37;8.03;;;;;;;11.04;100.00;101485.16;5033435;28;20219;-73
2022/10/28 01:46:59;;;;;;;10.13;7.57;;;;;;;11.01;100.00;101481.72;5041052;28;20197;-72
2022/10/28 01:49:33;;;;;;;14.33;8.17;;;;;;;11.01;100.00;101477.41;5036264;28;20199;-72
2022/10/28 01:52:04;;;;;;;11.13;7.33;;;;;;;10.99;100.00;101480.03;5038377;28;20229;-73
2022/10/28 01:54:33;;;;;;;10.53;7.77;;;;;;;10.99;100.00;101479.16;5025760;28;20829;-73
2022/10/28 01:57:03;;;;;;;17.87;7.73;;;;;;;11.02;100.00;101479.09;5018640;28;20204;-73
2022/10/28 01:59:31;;;;;;;13.67;7.17;;;;;;;11.02;100.00;101476.50;5021115;28;20825;-73
2022/10/28 02:01:59;;;;;;;11.00;7.40;;;;;;;11.04;100.00;101479.09;5020730;28;20207;-73
2022/10/28 02:04:25;;;;;;;14.47;7.63;;;;;;;11.04;100.00;101471.25;5020101;28;20215;-72
2022/10/28 02:06:54;;;;;;;10.27;6.97;;;;;;;11.03;100.00;101470.41;5022432;28;20555;-73
2022/10/28 02:09:34;;;;;;;11.40;7.17;;;;;;;10.99;100.00;101473.91;5018941;28;20207;-72
2022/10/28 02:12:26;;;;;;;11.93;7.80;;;;;;;10.98;100.00;101474.81;5019457;28;20499;-72
2022/10/28 02:15:07;;;;;;;10.87;7.27;;;;;;;10.96;100.00;101476.59;5008096;28;20231;-72
2022/10/28 02:17:42;;;;;;;8.90;6.50;;;;;;;10.97;100.00;101471.34;5019807;28;20234;-72
2022/10/28 02:20:17;;;;;;;8.47;6.63;;;;;;;11.02;100.00;101473.88;5024027;28;20209;-73
2022/10/28 02:22:49;;;;;;;14.20;7.87;;;;;;;11.02;100.00;101467.81;5027381;28;20293;-73
2022/10/28 02:25:20;;;;;;;8.37;6.60;;;;;;;11.05;100.00;101475.59;5017874;28;20584;-73
2022/10/28 02:27:54;;;;;;;12.40;6.80;;;;;;;11.02;100.00;101468.66;5021312;28;20204;-72
2022/10/28 02:30:23;;;;;;;14.10;6.73;;;;;;;11.01;100.00;101463.47;5019660;28;20199;-73
2022/10/28 02:32:55;;;;;;;9.37;6.80;;;;;;;11.01;100.00;101456.53;5016622;28;20227;-72
2022/10/28 02:35:28;;;;;;;11.03;6.73;;;;;;;11.02;100.00;101460.84;5016370;28;20198;-72
2022/10/28 02:37:58;;;;;;;10.27;7.17;;;;;;;11.02;100.00;101452.16;5021916;28;21726;-73
2022/10/28 02:40:28;;;;;;;11.43;7.00;;;;;;;11.01;100.00;101459.13;5019858;28;20498;-73
2022/10/28 02:42:59;;;;;;;10.03;6.30;;;;;;;11.01;100.00;101453.91;5014943;28;20315;-72
2022/10/28 02:45:31;;;;;;;8.63;6.50;;;;;;;11.02;100.00;101457.38;5019105;28;20203;-73
2022/10/28 02:48:05;;;;;;;12.27;6.17;;;;;;;10.99;100.00;101456.53;5022310;28;20293;-72
2022/10/28 02:50:35;;;;;;;9.80;6.60;;;;;;;11.04;100.00;101450.38;5022864;28;20203;-73
2022/10/28 02:53:08;;;;;;;10.57;6.70;;;;;;;11.05;100.00;101444.28;5020397;28;20224;-73
2022/10/28 02:55:40;;;;;;;7.50;6.10;;;;;;;11.05;100.00;101444.28;4937993;28;20245;-70
2022/10/28 02:58:07;;;;;;;9.17;6.53;;;;;;;11.07;100.00;101450.34;4941297;28;21804;-71
2022/10/28 03:00:33;;;;;;;8.63;6.23;;;;;;;11.05;100.00;101455.59;4939743;28;20601;-70
2022/10/28 03:03:02;;;;;;;9.17;6.47;;;;;;;11.01;100.00;101456.53;4939665;28;20698;-71
2022/10/28 03:05:28;;;;;;;7.57;6.17;;;;;;;10.98;100.00;101457.41;4939903;28;20642;-71
2022/10/28 03:07:55;;;;;;;10.03;6.63;;;;;;;10.96;100.00;101446.16;4943406;28;20206;-71
2022/10/28 03:10:21;;;;;;;10.33;6.60;;;;;;;10.93;100.00;101440.09;4939168;28;20351;-70
2022/10/28 03:12:48;;;;;;;8.97;6.03;;;;;;;10.87;100.00;101441.06;4941854;28;20213;-71
2022/10/28 03:15:14;;;;;;;9.23;6.50;;;;;;;10.82;100.00;101440.28;4943975;28;20226;-70
2022/10/28 03:17:40;;;;;;;9.90;6.30;;;;;;;10.75;100.00;101439.47;4937768;28;20286;-71
2022/10/28 03:20:10;;;;;;;10.37;6.37;;;;;;;10.75;100.00;101436.03;4941319;28;20760;-71
2022/10/28 03:22:36;;;;;;;7.57;5.50;;;;;;;10.70;100.00;101430.00;4942641;28;20199;-70
2022/10/28 03:25:03;;;;;;;8.37;5.93;;;;;;;10.63;100.00;101433.59;4942987;28;20225;-71
2022/10/28 03:27:29;;;;;;;9.17;5.83;;;;;;;10.58;100.00;101438.84;4937516;28;20205;-71
2022/10/28 03:29:56;;;;;;;7.87;5.73;;;;;;;10.52;100.00;101445.00;4942090;28;20202;-70
2022/10/28 03:32:22;;;;;;;7.30;5.67;;;;;;;10.50;100.00;101449.38;4941378;28;20203;-70
2022/10/28 03:34:48;;;;;;;8.00;5.80;;;;;;;10.48;100.00;101445.91;4942903;28;20317;-70
2022/10/28 03:37:16;;;;;;;8.23;5.83;;;;;;;10.47;100.00;101451.16;4940436;28;20260;-70
2022/10/28 03:39:42;;;;;;;8.63;5.77;;;;;;;10.43;100.00;101442.53;4943951;28;20754;-70
2022/10/28 03:42:09;;;;;;;8.43;6.50;;;;;;;10.48;100.00;101437.22;4941602;28;20572;-70
2022/10/28 03:44:35;;;;;;;7.97;5.80;;;;;;;10.49;100.00;101449.41;4941607;28;20280;-71
2022/10/28 03:47:01;;;;;;;9.60;5.77;;;;;;;10.47;100.00;101451.16;4941506;28;20264;-71
2022/10/28 03:49:28;;;;;;;8.57;5.63;;;;;;;10.48;100.00;101452.88;4941098;28;20712;-71
2022/10/28 03:51:55;;;;;;;9.40;6.10;;;;;;;10.49;100.00;101449.41;4941566;28;20300;-70
2022/10/28 03:54:22;;;;;;;8.50;5.93;;;;;;;10.48;100.00;101463.31;4941122;28;20231;-71
2022/10/28 03:56:49;;;;;;;7.33;5.40;;;;;;;10.44;100.00;101448.59;4940136;28;20209;-70
2022/10/28 03:59:15;;;;;;;7.37;5.17;;;;;;;10.40;100.00;101456.44;4942958;28;20801;-71
2022/10/28 04:01:42;;;;;;;7.00;5.13;;;;;;;10.39;100.00;101461.69;4941882;28;20230;-70
2022/10/28 04:04:08;;;;;;;7.73;5.53;;;;;;;10.34;100.00;101456.53;4941501;28;20296;-71
2022/10/28 04:06:34;;;;;;;8.63;6.07;;;;;;;10.33;100.00;101459.16;4943125;28;20210;-71
2022/10/28 04:09:03;;;;;;;7.27;5.37;;;;;;;10.27;100.00;101454.81;4943734;28;20280;-71
2022/10/28 04:11:30;;;;;;;5.57;4.70;;;;;;;10.23;100.00;101454.00;4940838;28;20589;-70
2022/10/28 04:13:57;;;;;;;8.97;5.63;;;;;;;10.20;100.00;101450.56;4938530;28;20215;-71
2022/10/28 04:16:23;;;;;;;6.53;4.97;;;;;;;10.14;100.00;101448.91;4943044;28;20217;-70
2022/10/28 04:18:50;;;;;;;7.63;4.90;;;;;;;10.08;100.00;101451.59;4945775;28;20717;-71
2022/10/28 04:21:16;;;;;;;7.83;5.37;;;;;;;10.02;100.00;101455.09;4945217;28;20206;-70
2022/10/28 04:23:42;;;;;;;6.47;4.40;;;;;;;9.98;100.00;101442.13;4948583;28;20280;-71
2022/10/28 04:26:09;;;;;;;5.83;4.97;;;;;;;9.93;100.00;101444.78;4945612;28;20210;-70
2022/10/28 04:28:36;;;;;;;6.10;5.00;;;;;;;9.86;100.00;101438.75;4944063;28;20290;-70
2022/10/28 04:31:03;;;;;;;6.03;4.63;;;;;;;9.82;100.00;101437.06;4944062;28;20216;-70
2022/10/28 04:33:30;;;;;;;5.07;4.43;;;;;;;9.79;100.00;101444.91;4946736;28;20598;-71
2022/10/28 04:35:56;;;;;;;7.20;5.40;;;;;;;9.75;100.00;101443.22;4941985;28;20616;-70
2022/10/28 04:38:23;;;;;;;5.53;4.73;;;;;;;9.73;100.00;101437.19;4944813;28;20216;-71
2022/10/28 04:40:50;;;;;;;6.80;5.20;;;;;;;9.73;100.00;101425.91;4944360;28;20571;-70
2022/10/28 04:43:16;;;;;;;7.10;5.13;;;;;;;9.74;100.00;101427.63;4942703;28;20201;-70
2022/10/28 04:45:45;;;;;;;6.87;5.43;;;;;;;9.72;100.00;101426.78;4947334;28;20467;-70
2022/10/28 04:48:11;;;;;;;7.60;5.30;;;;;;;9.64;100.00;101425.09;4946479;28;20306;-71
2022/10/28 04:50:38;;;;;;;9.63;5.93;;;;;;;9.62;100.00;101418.16;4946226;28;20248;-70
2022/10/28 04:53:10;;;;;;;13.20;5.67;;;;;;;9.66;100.00;101412.94;4948928;28;20213;-70
2022/10/28 04:55:36;;;;;;;8.80;5.77;;;;;;;9.72;100.00;101414.59;4950255;28;20679;-71
2022/10/28 04:58:04;;;;;;;7.87;6.17;;;;;;;9.72;100.00;101417.22;4944836;28;20213;-70
2022/10/28 05:00:30;;;;;;;8.13;5.63;;;;;;;9.76;100.00;101420.63;4945558;28;20209;-71
2022/10/28 05:03:00;;;;;;;8.03;6.20;;;;;;;9.78;100.00;101424.09;4947951;28;20217;-71
2022/10/28 05:05:27;;;;;;;10.77;6.13;;;;;;;9.81;100.00;101422.31;4943998;28;20733;-71
2022/10/28 05:07:54;;;;;;;7.43;6.03;;;;;;;9.84;100.00;101422.28;4929040;28;20197;-70
2022/10/28 05:10:20;;;;;;;8.33;6.10;;;;;;;9.85;100.00;101428.38;4945385;28;20208;-71
2022/10/28 05:12:47;;;;;;;9.20;6.67;;;;;;;9.85;100.00;101421.44;4944925;28;20212;-70
2022/10/28 05:15:14;;;;;;;9.63;6.50;;;;;;;9.86;100.00;101424.88;4945462;28;20472;-71
2022/10/28 05:17:43;;;;;;;9.13;6.50;;;;;;;9.83;100.00;101425.78;4945173;28;20216;-70
2022/10/28 05:20:12;;;;;;;8.00;6.67;;;;;;;9.86;100.00;101422.28;4944949;28;20264;-70
2022/10/28 05:22:44;;;;;;;10.23;6.37;;;;;;;9.86;100.00;101432.69;4940031;28;20206;-70
2022/10/28 05:25:11;;;;;;;11.13;6.47;;;;;;;9.87;100.00;101429.22;4940483;28;20225;-70
2022/10/28 05:27:37;;;;;;;11.03;6.83;;;;;;;9.91;100.00;101422.25;4947803;28;20274;-70
2022/10/28 05:30:04;;;;;;;13.00;7.27;;;;;;;9.89;100.00;101417.03;4946175;28;20198;-71
2022/10/28 05:32:31;;;;;;;13.47;7.30;;;;;;;9.89;100.00;101421.41;4922029;28;20218;-70
2022/10/28 05:34:57;;;;;;;9.37;6.77;;;;;;;9.95;100.00;101426.53;4940506;28;20236;-71
2022/10/28 05:37:25;;;;;;;11.23;7.93;;;;;;;9.97;100.00;101424.75;4940581;28;20420;-70
2022/10/28 05:39:51;;;;;;;9.70;7.43;;;;;;;9.98;100.00;101413.47;4945696;28;20310;-71
2022/10/28 05:42:17;;;;;;;9.03;7.23;;;;;;;10.01;100.00;101411.69;4944988;28;20201;-71
2022/10/28 05:44:44;;;;;;;11.67;8.10;;;;;;;10.04;100.00;101413.41;4942782;28;20233;-71
2022/10/28 05:47:10;;;;;;;10.13;7.60;;;;;;;10.13;100.00;101415.03;4944024;28;20788;-71
2022/10/28 05:49:36;;;;;;;10.23;7.63;;;;;;;10.16;100.00;101409.78;4944627;28;20192;-71
2022/10/28 05:52:03;;;;;;;10.10;7.30;;;;;;;10.26;100.00;101414.03;4949365;28;20253;-71
2022/10/28 05:54:31;;;;;;;13.63;9.00;;;;;;;10.29;100.00;101408.78;4940576;28;20240;-70
2022/10/28 05:56:57;;;;;;;11.23;7.83;;;;;;;10.37;100.00;101404.34;4943425;28;20288;-71
2022/10/28 05:59:24;;;;;;;11.50;8.03;;;;;;;10.42;100.00;101409.50;4945029;28;20226;-70
2022/10/28 06:01:50;;;;;;;14.17;8.33;;;;;;;10.50;100.00;101409.41;4941821;28;20404;-70
2022/10/28 06:04:17;;;;;;;15.00;8.43;;;;;;;10.50;100.00;101405.06;4945016;28;20229;-71
2022/10/28 06:06:43;;;;;;;13.10;8.80;;;;;;;10.50;100.00;101407.66;4941370;28;20676;-70
2022/10/28 06:09:09;;;;;;;14.83;9.07;;;;;;;10.55;100.00;101404.97;4940207;28;20206;-70
2022/10/28 06:11:37;;;;;;;12.60;8.70;;;;;;;10.56;100.00;101402.34;4944463;28;20828;-71
2022/10/28 06:14:03;;;;;;;13.10;9.10;;;;;;;10.69;100.00;101404.78;4943472;28;20222;-70
2022/10/28 06:16:30;;;;;;;13.73;9.03;;;;;;;10.76;100.00;101398.59;4944854;28;20208;-71
2022/10/28 06:18:57;;;;;;;16.30;9.07;;;;;;;10.85;100.00;101401.06;4943627;28;20229;-70
2022/10/28 06:21:23;;;;;;;14.97;9.53;;;;;;;10.95;100.00;101407.88;4941945;28;20204;-71
2022/10/28 06:23:50;;;;;;;15.07;9.93;;;;;;;11.02;100.00;101410.41;4944555;28;20285;-70
2022/10/28 06:26:17;;;;;;;20.33;10.67;;;;;;;10.99;100.00;101413.91;4943837;28;20714;-71
2022/10/28 06:28:47;;;;;;;14.10;8.90;;;;;;;11.02;100.00;101402.59;4944147;28;20209;-71
2022/10/28 06:31:13;;;;;;;19.50;10.37;;;;;;;11.04;100.00;101409.47;4943099;28;20535;-71
2022/10/28 06:33:39;;;;;;;17.43;9.40;;;;;;;11.07;100.00;101409.44;4946759;28;20698;-71
2022/10/28 06:36:06;;;;;;;17.20;9.70;;;;;;;11.06;100.00;101422.50;4943712;28;20281;-71
2022/10/28 06:38:33;;;;;;;16.20;9.73;;;;;;;11.08;100.00;101425.97;4941809;28;20323;-70
2022/10/28 06:40:59;;;;;;;14.53;9.20;;;;;;;11.08;100.00;101418.13;4944730;28;20214;-71
2022/10/28 06:43:26;;;;;;;14.60;9.53;;;;;;;11.10;100.00;101425.06;4938734;28;20852;-70
2022/10/28 06:45:56;;;;;;;15.90;9.77;;;;;;;11.11;100.00;101433.75;4939286;28;20199;-71
2022/10/28 06:48:23;;;;;;;21.63;10.47;;;;;;;11.14;100.00;101428.47;4938444;28;20214;-71
2022/10/28 06:50:49;;;;;;;16.57;9.87;;;;;;;11.18;100.00;101431.00;4939882;28;20924;-71
2022/10/28 06:53:16;;;;;;;14.47;9.57;;;;;;;11.23;100.00;101425.72;4941860;28;20198;-70
2022/10/28 06:55:47;;;;;;;15.07;9.90;;;;;;;11.26;100.00;101437.88;4939920;28;20485;-71
2022/10/28 06:58:13;;;;;;;14.70;10.07;;;;;;;11.28;100.00;101442.19;4942320;28;20203;-70
2022/10/28 07:00:40;;;;;;;20.77;9.73;;;;;;;11.33;100.00;101435.13;4935567;28;20778;-71
2022/10/28 07:03:09;;;;;;;15.43;9.20;;;;;;;11.39;100.00;101443.75;4943540;28;20620;-70
2022/10/28 07:05:35;;;;;;;18.30;10.37;;;;;;;11.44;100.00;101445.41;4932168;28;20589;-71
2022/10/28 07:08:02;;;;;;;21.40;10.47;;;;;;;11.53;100.00;101447.84;4945698;28;20210;-70
2022/10/28 07:10:28;;;;;;;18.87;10.57;;;;;;;11.61;100.00;101437.28;4940269;28;20225;-71
2022/10/28 07:12:54;;;;;;;18.13;10.27;;;;;;;11.70;100.00;101437.13;4939507;28;20210;-71
2022/10/28 07:15:21;;;;;;;24.33;11.87;;;;;;;11.78;100.00;101436.09;4919343;28;20690;-71
2022/10/28 07:17:52;;;;;;;20.87;10.83;;;;;;;11.86;100.00;101440.31;4939471;28;20198;-70
2022/10/28 07:20:19;;;;;;;19.23;11.03;;;;;;;11.93;100.00;101433.25;4940999;28;20226;-71
2022/10/28 07:22:46;;;;;;;27.30;11.80;;;;;;;12.01;100.00;101440.94;4938274;28;20206;-70
2022/10/28 07:25:12;;;;;;;23.47;12.10;;;;;;;12.04;100.00;101422.59;4939453;28;20214;-71
2022/10/28 07:27:39;;;;;;;20.73;11.50;;;;;;;12.09;100.00;101429.44;4933752;28;20194;-70
2022/10/28 07:30:06;;;;;;;22.23;12.20;;;;;;;12.15;100.00;101420.63;4938095;28;20204;-71
2022/10/28 07:32:32;;;;;;;19.57;11.90;;;;;;;12.20;100.00;101423.16;4936296;28;20285;-70
2022/10/28 07:34:59;;;;;;;21.07;11.50;;;;;;;12.25;100.00;101424.75;4941917;28;20218;-71
2022/10/28 07:37:29;;;;;;;25.10;12.27;;;;;;;12.33;100.00;101427.25;4939098;28;20206;-70
2022/10/28 07:39:55;;;;;;;19.13;11.50;;;;;;;12.43;100.00;101435.75;4944205;28;20520;-70
2022/10/28 07:42:21;;;;;;;19.83;11.63;;;;;;;12.52;100.00;101445.16;4942180;28;20199;-71
2022/10/28 07:44:48;;;;;;;22.20;12.43;;;;;;;12.64;100.00;101445.75;4925716;28;20587;-70
2022/10/28 07:47:15;;;;;;;24.03;11.47;;;;;;;12.71;100.00;101451.72;4943466;28;20646;-70
2022/10/28 07:49:42;;;;;;;21.07;11.23;;;;;;;12.78;100.00;101447.22;4946480;28;20211;-70
2022/10/28 07:52:09;;;;;;;24.97;12.40;;;;;;;12.84;100.00;101444.44;4944022;28;20209;-70
2022/10/28 07:54:36;;;;;;;23.67;12.67;;;;;;;12.90;100.00;101449.53;4945962;28;20294;-71
2022/10/28 07:57:03;;;;;;;22.97;12.20;;;;;;;12.96;100.00;101449.38;4942241;28;20207;-70
2022/10/28 07:59:29;;;;;;;22.83;12.07;;;;;;;13.05;100.00;101445.69;4946796;28;20723;-70
2022/10/28 08:01:55;;;;;;;19.97;12.30;;;;;;;13.15;100.00;101452.44;4942222;28;20199;-71
2022/10/28 08:04:22;;;;;;;21.37;11.10;;;;;;;13.20;100.00;101452.34;4939649;28;20650;-71
2022/10/28 08:06:48;;;;;;;20.10;11.63;;;;;;;13.29;100.00;101446.88;4944455;28;20265;-71
2022/10/28 08:09:16;;;;;;;24.93;13.30;;;;;;;13.32;100.00;101453.84;4944419;28;20575;-71
2022/10/28 08:11:43;;;;;;;18.07;11.30;;;;;;;13.37;100.00;101444.97;4945022;28;20514;-71
2022/10/28 08:14:10;;;;;;;21.03;11.43;;;;;;;13.42;100.00;101445.72;4939516;28;20651;-71
2022/10/28 08:16:36;;;;;;;19.40;11.63;;;;;;;13.50;100.00;101440.28;4940949;28;20213;-71
2022/10/28 08:19:03;;;;;;;19.33;11.27;;;;;;;13.62;100.00;101434.72;4945397;28;20208;-71
2022/10/28 08:21:29;;;;;;;16.87;10.80;;;;;;;13.72;100.00;101448.47;4945086;28;20209;-71
2022/10/28 08:23:55;;;;;;;19.57;10.80;;;;;;;13.86;100.00;101450.72;4945866;28;20237;-71
2022/10/28 08:26:22;;;;;;;18.83;9.93;;;;;;;14.02;100.00;101454.66;4944552;28;20209;-71
2022/10/28 08:28:49;;;;;;;18.40;9.50;;;;;;;14.14;100.00;101449.94;4944742;28;20202;-71
2022/10/28 08:31:16;;;;;;;12.23;8.90;;;;;;;14.23;100.00;101444.47;4940944;28;20643;-71
2022/10/28 08:33:44;;;;;;;13.13;9.07;;;;;;;14.33;100.00;101453.78;4941465;28;20484;-71
2022/10/28 08:36:12;;;;;;;11.33;7.50;;;;;;;14.42;100.00;101454.41;4940634;28;20289;-71
2022/10/28 08:38:39;;;;;;;8.77;6.83;;;;;;;14.47;100.00;101458.63;4945378;28;20202;-70
2022/10/28 08:41:18;;;;;;;8.70;5.90;;;;;;;14.58;100.00;101466.22;4935530;28;20229;-71
2022/10/28 08:44:23;;;;;;;9.93;6.07;;;;;;;14.67;100.00;101460.72;4944097;28;20219;-71
2022/10/28 08:47:04;;;;;;;7.17;5.33;;;;;;;14.74;100.00;101459.63;4941543;28;20213;-71
2022/10/28 08:49:34;;;;;;;7.40;4.93;;;;;;;14.84;100.00;101469.84;4939760;28;20206;-70
2022/10/28 08:52:06;;;;;;;7.17;4.87;;;;;;;14.93;100.00;101465.16;4942022;28;20210;-71
2022/10/28 08:54:37;;;;;;;9.37;5.30;;;;;;;14.97;100.00;101468.56;4992399;23;20241;-73
2022/10/28 08:57:11;;;;;;;5.93;4.60;;;;;;;15.02;100.00;101465.78;5045774;28;20227;-72
2022/10/28 08:59:41;;;;;;;6.33;4.20;;;;;;;15.10;100.00;101462.00;5046379;28;20293;-71
2022/10/28 09:02:21;;;;;;;6.50;4.37;;;;;;;15.14;100.00;101462.75;5039956;28;20847;-70
2022/10/28 09:04:52;;;;;;;5.03;4.00;;;;;;;15.18;100.00;101460.88;5030019;28;20260;-72
2022/10/28 09:07:22;;;;;;;6.90;4.33;;;;;;;15.25;100.00;101465.91;5050876;28;20214;-74
2022/10/28 09:09:50;;;;;;;7.00;4.40;;;;;;;15.33;100.00;101460.41;5048681;28;20192;-74
2022/10/28 09:12:29;;;;;;;6.03;3.97;;;;;;;15.41;100.00;101454.88;5048028;28;20196;-73
2022/10/28 09:15:11;;;;;;;7.33;4.20;;;;;;;15.48;100.00;101446.75;5032324;28;20203;-73
2022/10/28 09:17:46;;;;;;;6.93;4.00;;;;;;;15.55;100.00;101444.78;5050826;28;20243;-72
2022/10/28 09:20:18;;;;;;;8.10;4.03;;;;;;;15.62;100.00;101448.03;5049606;28;20211;-74
2022/10/28 09:22:53;;;;;;;4.87;4.00;;;;;;;15.70;100.00;101451.28;5028962;28;20257;-74
2022/10/28 09:25:25;;;;;;;5.20;3.93;;;;;;;15.81;100.00;101438.69;5052004;28;20205;-72
2022/10/28 09:28:06;;;;;;;6.27;3.93;;;;;;;15.92;100.00;101442.66;5050341;28;20219;-74
2022/10/28 09:30:45;;;;;;;5.37;3.63;;;;;;;15.99;100.00;101446.78;5050207;28;20252;-72
2022/10/28 09:33:25;;;;;;;5.30;3.57;;;;;;;16.09;100.00;101442.94;5047345;28;20222;-74
2022/10/28 09:35:52;;;;;;;5.97;3.60;;;;;;;16.20;100.00;101435.53;5047667;28;20202;-74
2022/10/28 09:38:26;;;;;;;5.63;3.83;;;;;;;16.21;100.00;101433.75;5047597;28;20223;-73
2022/10/28 09:40:59;;;;;;;8.33;3.80;;;;;;;16.17;100.00;101422.47;5049256;28;20234;-72
2022/10/28 09:43:29;;;;;;;7.57;3.83;;;;;;;16.21;100.00;101428.47;5034665;28;20263;-74
2022/10/28 09:46:02;;;;;;;5.73;3.40;;;;;;;16.30;100.00;101435.16;5045144;28;20200;-74
2022/10/28 09:48:32;;;;;;;4.10;3.17;;;;;;;16.42;100.00;101425.03;5029369;28;20229;-72
2022/10/28 09:50:59;;;;;;;6.13;3.80;;;;;;;16.47;100.00;101424.88;5046206;28;20194;-74
2022/10/28 09:53:39;;;;;;;4.93;3.10;;;;;;;16.50;100.00;101424.75;5045083;28;20206;-73
2022/10/28 09:56:06;;;;;;;4.47;3.23;;;;;;;16.56;100.00;101416.59;5045136;28;20526;-73
2022/10/28 09:58:34;;;;;;;5.97;3.10;;;;;;;16.54;100.00;101412.34;5027557;28;20555;-74
2022/10/28 10:01:04;;;;;;;6.27;3.10;;;;;;;16.63;100.00;101406.72;5024265;28;20241;-74
2022/10/28 10:03:31;;;;;;;3.97;2.73;;;;;;;16.74;100.00;101407.13;5045064;28;20578;-74
2022/10/28 10:06:02;;;;;;;8.67;3.70;;;;;;;16.94;100.00;101416.03;5048651;28;20246;-74
2022/10/28 10:08:30;;;;;;;6.43;3.27;;;;;;;17.01;100.00;101412.28;5033355;28;20219;-74
2022/10/28 10:11:01;;;;;;;4.67;2.83;;;;;;;17.13;100.00;101406.50;5027791;28;20194;-72
2022/10/28 10:13:32;;;;;;;4.23;3.07;;;;;;;17.22;100.00;101403.47;5045046;28;20204;-72
2022/10/28 10:16:04;;;;;;;6.17;3.17;;;;;;;17.26;100.00;101395.44;5049803;28;20691;-73
2022/10/28 10:18:33;;;;;;;5.53;3.03;;;;;;;17.37;100.00;101396.69;5027030;28;20795;-72
2022/10/28 10:21:01;;;;;;;6.17;3.30;;;;;;;17.48;100.00;101408.56;5031415;28;20625;-73
2022/10/28 10:23:30;;;;;;;5.10;3.20;;;;;;;17.60;100.00;101414.16;5037217;28;20200;-74
2022/10/28 10:25:59;;;;;;;4.87;3.10;;;;;;;17.70;100.00;101417.28;5046018;28;20203;-73
2022/10/28 10:28:27;;;;;;;6.30;2.87;;;;;;;17.76;100.00;101414.38;5025130;28;20824;-74
2022/10/28 10:30:56;;;;;;;4.67;3.13;;;;;;;17.80;100.00;101415.09;5044863;28;20568;-70
2022/10/28 10:33:27;;;;;;;7.27;2.50;;;;;;;17.81;100.00;101413.31;5042098;28;20333;-74
2022/10/28 10:35:58;;;;;;;6.17;2.80;;;;;;;17.86;100.00;101406.94;5026392;28;20191;-74
2022/10/28 10:38:25;;;;;;;5.70;3.07;;;;;;;17.91;100.00;101406.75;5044909;28;20578;-72
2022/10/28 10:40:52;;;;;;;5.40;2.70;;;;;;;17.98;100.00;101408.19;5028419;28;20215;-74
2022/10/28 10:43:22;;;;;;;4.93;2.67;;;;;;;18.04;100.00;101405.25;5034647;28;20219;-74
2022/10/28 10:45:53;;;;;;;5.03;2.83;;;;;;;18.05;100.00;101400.84;5049217;28;20377;-71
2022/10/28 10:48:20;;;;;;;4.87;2.77;;;;;;;18.08;100.00;101395.41;5044202;28;20226;-72
2022/10/28 10:50:49;;;;;;;4.10;2.63;;;;;;;18.15;100.00;101391.56;5038819;28;20199;-72
2022/10/28 10:53:27;;;;;;;3.53;2.50;;;;;;;18.18;100.00;101394.06;5040229;28;20203;-72
2022/10/28 10:55:56;;;;;;;3.77;2.80;;;;;;;18.23;100.00;101393.88;5034848;28;20444;-72
2022/10/28 10:58:26;;;;;;;3.83;2.50;;;;;;;18.26;100.00;101386.66;5037664;28;20215;-72
2022/10/28 11:00:56;;;;;;;3.83;2.83;;;;;;;18.35;100.00;101386.22;5041228;28;20455;-72
2022/10/28 11:03:26;;;;;;;3.97;2.73;;;;;;;18.35;100.00;101378.31;5039924;28;20310;-72
2022/10/28 11:05:56;;;;;;;3.43;2.60;;;;;;;18.38;100.00;101377.31;5037784;28;20202;-72
2022/10/28 11:08:32;;;;;;;4.60;2.80;;;;;;;18.49;100.00;101377.66;5042557;28;20964;-72
2022/10/28 11:11:07;;;;;;;4.90;3.00;;;;;;;18.57;100.00;101373.81;5040052;28;20207;-72
2022/10/28 11:13:35;;;;;;;5.67;3.10;;;;;;;18.65;100.00;101367.22;5038539;28;20209;-73
2022/10/28 11:16:03;;;;;;;4.30;2.80;;;;;;;18.77;100.00;101370.19;5040029;28;20202;-72
2022/10/28 11:18:40;;;;;;;2.93;2.30;;;;;;;18.86;100.00;101365.34;5037289;28;20723;-72
2022/10/28 11:21:17;;;;;;;2.93;2.20;;;;;;;18.91;100.00;101362.50;5039529;28;20289;-74